Pinecliffe, Colorado
Current Conditions -  °F | °C
As of 11:36 PM on Thursday 30 Oct 2014 (Local Time) from KBDU Reporting Station
Clear Clear  
Wind Chill: 42°   Ceiling: Unl
Heat Index: 45°   Visibility: 10mi
Dew Point: 28°   Wind: 5mph
Humidity: 53%   Direction: 260°W
Pressure: 30.4"   Gusts: NA
Location:  39.93°N, 105.43°W
Report Text: KBDU 310536Z AUTO 26004KT 10SM CLR 07/M02 A3040 RMK AO2
Loading
Personal Weather Stations






























Interactive Weather Map
Tropical Storm Tracking
New forecast layout! Learn more

10-Day Weather Forecast

Advertisements
Track Severe Weather on mobile